createdAt,value
2023-01-28T00:00:42.926Z,2.1
2023-01-28T00:01:46.593Z,2.1
2023-01-28T00:02:50.915Z,2.1
2023-01-28T00:03:54.784Z,2.1
2023-01-28T00:04:57.832Z,2.2
2023-01-28T00:06:01.178Z,2.2
2023-01-28T00:07:04.862Z,2.2
2023-01-28T00:08:07.685Z,2.2
2023-01-28T00:09:10.396Z,2.2
2023-01-28T00:10:13.232Z,2.2
2023-01-28T00:11:16.378Z,2.2
2023-01-28T00:12:19.388Z,2.2
2023-01-28T00:13:22.379Z,2.2
2023-01-28T00:14:25.091Z,2.2
2023-01-28T00:15:27.859Z,2.3
2023-01-28T00:16:31.915Z,2.2
2023-01-28T00:17:35.012Z,2.3
2023-01-28T00:18:38.986Z,2.2
2023-01-28T00:19:41.815Z,2.2
2023-01-28T00:20:44.929Z,2.2
2023-01-28T00:21:47.732Z,2.2
2023-01-28T00:22:53.969Z,2.2
2023-01-28T00:23:57.926Z,2.3
2023-01-28T00:25:01.375Z,2.3
2023-01-28T00:26:05.848Z,2.3
2023-01-28T00:27:10.223Z,2.3
2023-01-28T00:28:13.626Z,2.2
2023-01-28T00:29:17.008Z,2.2
2023-01-28T00:30:20.107Z,2.2
2023-01-28T00:31:23.540Z,2.2
2023-01-28T00:32:26.910Z,2.2
2023-01-28T00:33:30.344Z,2.2
2023-01-28T00:34:34.016Z,2.2
2023-01-28T00:35:37.812Z,2.2
2023-01-28T00:36:40.937Z,2.2
2023-01-28T00:37:43.733Z,2.2
2023-01-28T00:38:46.856Z,2.2
2023-01-28T00:39:49.860Z,2.2
2023-01-28T00:40:52.822Z,2.2
2023-01-28T00:41:56.590Z,2.3
2023-01-28T00:43:00.333Z,2.3
2023-01-28T00:44:03.342Z,2.3
2023-01-28T00:45:06.385Z,2.2
2023-01-28T00:46:09.936Z,2.2
2023-01-28T00:47:13.665Z,2.2
2023-01-28T00:48:17.094Z,2.2
2023-01-28T00:49:20.761Z,2.2
2023-01-28T00:50:24.819Z,2.2
2023-01-28T00:51:27.823Z,2.2
2023-01-28T00:52:30.576Z,2.2
2023-01-28T00:53:34.297Z,2.2
2023-01-28T00:54:37.177Z,2.2
2023-01-28T00:55:40.584Z,2.2
2023-01-28T00:56:43.453Z,2.2
2023-01-28T00:57:46.264Z,2.2
2023-01-28T00:58:49.688Z,2.2
2023-01-28T00:59:53.050Z,2.2
2023-01-28T01:00:56.345Z,2.2
2023-01-28T01:01:59.345Z,2.2
2023-01-28T01:03:02.432Z,2.2
2023-01-28T01:04:05.600Z,2.3
2023-01-28T01:05:08.688Z,2.3
2023-01-28T01:06:11.843Z,2.3
2023-01-28T01:07:14.959Z,2.3
2023-01-28T01:08:18.398Z,2.3
2023-01-28T01:09:22.224Z,2.3
2023-01-28T01:10:25.981Z,2.3
2023-01-28T01:11:28.827Z,2.3
2023-01-28T01:12:31.637Z,2.2
2023-01-28T01:13:34.750Z,2.2
2023-01-28T01:14:38.504Z,2.2
2023-01-28T01:15:41.673Z,2.2
2023-01-28T01:16:45.134Z,2.3
2023-01-28T01:17:47.661Z,2.3
2023-01-28T01:18:51.013Z,2.3
2023-01-28T01:19:54.673Z,2.3
2023-01-28T01:20:57.658Z,2.3
2023-01-28T01:22:00.757Z,2.2
2023-01-28T01:23:03.280Z,2.2
2023-01-28T01:24:06.669Z,2.2
2023-01-28T01:25:10.449Z,2.2
2023-01-28T01:26:13.550Z,2.2
2023-01-28T01:27:16.614Z,2.2
2023-01-28T01:28:19.945Z,2.2
2023-01-28T01:29:22.691Z,2.2
2023-01-28T01:30:25.812Z,2.2
2023-01-28T01:31:28.883Z,2.2
2023-01-28T01:32:31.404Z,2.2
2023-01-28T01:33:34.680Z,2.2
2023-01-28T01:34:37.810Z,2.2
2023-01-28T01:35:40.905Z,2.2
2023-01-28T01:36:44.226Z,2.2
2023-01-28T01:37:47.425Z,2.1
2023-01-28T01:38:50.736Z,2.1
2023-01-28T01:39:53.481Z,2.1
2023-01-28T01:40:56.823Z,2.1
2023-01-28T01:42:00.860Z,2.1
2023-01-28T01:43:03.675Z,2.2
2023-01-28T01:44:06.762Z,2.2
2023-01-28T01:45:09.516Z,2.2
2023-01-28T01:46:12.878Z,2.2
2023-01-28T01:47:16.788Z,2.2
2023-01-28T01:48:19.534Z,2.2
2023-01-28T01:49:22.289Z,2.2
2023-01-28T01:50:25.968Z,2.2
2023-01-28T01:51:29.266Z,2.2
2023-01-28T01:52:32.264Z,2.2
2023-01-28T01:53:35.967Z,2.2
2023-01-28T01:54:39.323Z,2.2
2023-01-28T01:55:42.223Z,2.2
2023-01-28T01:56:44.760Z,2.2
2023-01-28T01:57:48.489Z,2.2
2023-01-28T01:58:51.645Z,2.2
2023-01-28T01:59:55.288Z,2.2
2023-01-28T02:00:58.312Z,2.2
2023-01-28T02:02:02.688Z,2.2
2023-01-28T02:03:05.972Z,2.2
2023-01-28T02:04:09.436Z,2.2
2023-01-28T02:05:14.707Z,2.2
2023-01-28T02:06:17.835Z,2.2
2023-01-28T02:07:21.077Z,2.1
2023-01-28T02:08:24.506Z,2.1
2023-01-28T02:09:28.170Z,2.1
2023-01-28T02:10:31.889Z,2.1
2023-01-28T02:11:35.288Z,2.1
2023-01-28T02:12:38.195Z,2.1
2023-01-28T02:13:41.015Z,2.1
2023-01-28T02:14:44.390Z,2.1
2023-01-28T02:15:47.719Z,2.1
2023-01-28T02:16:51.110Z,2.1
2023-01-28T02:17:54.587Z,2.1
2023-01-28T02:18:56.759Z,2.1
2023-01-28T02:19:59.489Z,2.1
2023-01-28T02:21:02.727Z,2.1
2023-01-28T02:22:05.501Z,2.1
2023-01-28T02:23:08.870Z,2.1
2023-01-28T02:24:11.711Z,2.1
2023-01-28T02:25:17.680Z,2.1
2023-01-28T02:26:21.100Z,2.1
2023-01-28T02:27:24.199Z,2.1
2023-01-28T02:28:26.936Z,2
2023-01-28T02:29:30.318Z,2
2023-01-28T02:30:33.707Z,2
2023-01-28T02:31:37.924Z,2
2023-01-28T02:32:41.446Z,2
2023-01-28T02:33:44.301Z,2
2023-01-28T02:34:47.975Z,2
2023-01-28T02:35:51.065Z,2
2023-01-28T02:36:54.406Z,2
2023-01-28T02:37:57.839Z,2
2023-01-28T02:39:00.678Z,2
2023-01-28T02:40:03.765Z,2
2023-01-28T02:41:07.611Z,2
2023-01-28T02:42:10.675Z,2
2023-01-28T02:43:13.768Z,2
2023-01-28T02:44:16.486Z,2
2023-01-28T02:45:19.604Z,2
2023-01-28T02:46:23.139Z,2
2023-01-28T02:47:26.428Z,2
2023-01-28T02:48:29.150Z,2
2023-01-28T02:49:32.578Z,2
2023-01-28T02:50:36.301Z,1.9
2023-01-28T02:51:39.293Z,1.9
2023-01-28T02:52:41.720Z,1.9
2023-01-28T02:53:44.524Z,1.9
2023-01-28T02:54:47.839Z,2
2023-01-28T02:55:51.208Z,2
2023-01-28T02:56:54.312Z,2
2023-01-28T02:57:57.017Z,2
2023-01-28T02:59:00.311Z,2
2023-01-28T03:00:03.054Z,2
2023-01-28T03:01:05.863Z,2
2023-01-28T03:02:08.898Z,2
2023-01-28T03:03:12.435Z,2
2023-01-28T03:04:15.283Z,2
2023-01-28T03:05:18.839Z,2
2023-01-28T03:06:21.540Z,2
2023-01-28T03:07:24.990Z,2
2023-01-28T03:08:28.077Z,2
2023-01-28T03:09:30.957Z,2
2023-01-28T03:10:34.066Z,2
2023-01-28T03:11:37.389Z,1.9
2023-01-28T03:12:40.772Z,1.9
2023-01-28T03:13:43.938Z,1.9
2023-01-28T03:14:47.045Z,1.9
2023-01-28T03:15:50.277Z,1.9
2023-01-28T03:16:54.124Z,1.9
2023-01-28T03:17:57.022Z,1.9
2023-01-28T03:18:59.786Z,1.9
2023-01-28T03:20:03.524Z,1.9
2023-01-28T03:21:06.668Z,1.9
2023-01-28T03:22:10.306Z,1.9
2023-01-28T03:23:13.464Z,1.9
2023-01-28T03:24:16.967Z,1.9
2023-01-28T03:25:19.808Z,1.9
2023-01-28T03:26:22.908Z,1.9
2023-01-28T03:27:26.253Z,1.9
2023-01-28T03:28:30.346Z,1.9
2023-01-28T03:29:33.064Z,1.9
2023-01-28T03:30:36.130Z,1.9
2023-01-28T03:31:39.962Z,1.9
2023-01-28T03:32:43.683Z,1.9
2023-01-28T03:33:46.230Z,1.9
2023-01-28T03:34:49.390Z,1.9
2023-01-28T03:35:52.439Z,1.9
2023-01-28T03:36:56.204Z,1.9
2023-01-28T03:37:58.986Z,1.9
2023-01-28T03:39:02.021Z,1.9
2023-01-28T03:40:05.269Z,1.9
2023-01-28T03:41:07.992Z,1.9
2023-01-28T03:42:11.145Z,1.8
2023-01-28T03:43:15.099Z,1.8
2023-01-28T03:44:18.504Z,1.8
2023-01-28T03:45:21.506Z,1.8
2023-01-28T03:46:25.643Z,1.8
2023-01-28T03:47:28.924Z,1.8
2023-01-28T03:48:32.314Z,1.8
2023-01-28T03:49:35.069Z,1.8
2023-01-28T03:50:38.075Z,1.9
2023-01-28T03:51:41.836Z,1.9
2023-01-28T03:52:45.250Z,1.8
2023-01-28T03:53:48.062Z,1.8
2023-01-28T03:54:51.343Z,1.9
2023-01-28T03:55:54.883Z,1.9
2023-01-28T03:56:58.523Z,1.9
2023-01-28T03:58:01.941Z,1.9
2023-01-28T03:59:05.218Z,1.9
2023-01-28T04:00:09.007Z,1.9
2023-01-28T04:01:12.018Z,1.9
2023-01-28T04:02:15.349Z,1.9
2023-01-28T04:03:18.695Z,1.8
2023-01-28T04:04:22.125Z,1.8
2023-01-28T04:05:25.806Z,1.9
2023-01-28T04:06:28.881Z,1.9
2023-01-28T04:07:31.976Z,1.9
2023-01-28T04:08:35.729Z,1.9
2023-01-28T04:09:39.008Z,1.9
2023-01-28T04:10:41.836Z,1.9
2023-01-28T04:11:44.570Z,1.9
2023-01-28T04:12:47.561Z,1.9
2023-01-28T04:13:51.083Z,1.9
2023-01-28T04:14:54.100Z,1.9
2023-01-28T04:15:57.269Z,1.9
2023-01-28T04:17:00.307Z,1.9
2023-01-28T04:18:03.372Z,1.9
2023-01-28T04:19:06.918Z,1.9
2023-01-28T04:20:10.031Z,1.9
2023-01-28T04:21:12.914Z,1.9
2023-01-28T04:22:16.653Z,1.9
2023-01-28T04:23:20.362Z,1.8
2023-01-28T04:24:23.950Z,1.8
2023-01-28T04:25:26.994Z,1.8
2023-01-28T04:26:29.807Z,1.8
2023-01-28T04:27:32.896Z,1.8
2023-01-28T04:28:35.975Z,1.7
2023-01-28T04:29:38.754Z,1.7
2023-01-28T04:30:42.403Z,1.7
2023-01-28T04:31:46.294Z,1.7
2023-01-28T04:32:49.283Z,1.7
2023-01-28T04:33:52.439Z,1.7
2023-01-28T04:34:55.511Z,1.7
2023-01-28T04:35:58.077Z,1.6
2023-01-28T04:37:01.472Z,1.6
2023-01-28T04:38:03.930Z,1.6
2023-01-28T04:39:07.026Z,1.6
2023-01-28T04:40:10.679Z,1.6
2023-01-28T04:41:14.017Z,1.7
2023-01-28T04:42:16.824Z,1.7
2023-01-28T04:43:19.895Z,1.7
2023-01-28T04:44:22.974Z,1.7
2023-01-28T04:45:26.056Z,1.7
2023-01-28T04:46:29.912Z,1.7
2023-01-28T04:47:33.065Z,1.7
2023-01-28T04:48:35.504Z,1.7
2023-01-28T04:49:37.971Z,1.7
2023-01-28T04:50:41.312Z,1.7
2023-01-28T04:51:44.706Z,1.6
2023-01-28T04:52:47.717Z,1.6
2023-01-28T04:53:50.801Z,1.6
2023-01-28T04:54:54.124Z,1.6
2023-01-28T04:55:57.582Z,1.6
2023-01-28T04:57:01.092Z,1.6
2023-01-28T04:58:04.460Z,1.6
2023-01-28T04:59:07.843Z,1.6
2023-01-28T05:00:11.260Z,1.6
2023-01-28T05:01:14.737Z,1.6
2023-01-28T05:02:18.547Z,1.5
2023-01-28T05:03:22.042Z,1.5
2023-01-28T05:04:25.424Z,1.5
2023-01-28T05:05:27.958Z,1.5
2023-01-28T05:06:30.967Z,1.5
2023-01-28T05:07:33.806Z,1.5
2023-01-28T05:08:36.648Z,1.5
2023-01-28T05:09:39.744Z,1.5
2023-01-28T05:10:43.487Z,1.6
2023-01-28T05:11:46.987Z,1.7
2023-01-28T05:12:49.781Z,1.7
2023-01-28T05:13:52.877Z,1.8
2023-01-28T05:14:55.595Z,1.8
2023-01-28T05:15:58.814Z,1.8
2023-01-28T05:17:02.789Z,1.8
2023-01-28T05:18:06.353Z,1.7
2023-01-28T05:19:09.485Z,1.7
2023-01-28T05:20:13.577Z,1.6
2023-01-28T05:21:16.886Z,1.6
2023-01-28T05:22:19.711Z,1.6
2023-01-28T05:23:23.568Z,1.6
2023-01-28T05:24:27.822Z,1.6
2023-01-28T05:25:31.296Z,1.6
2023-01-28T05:26:33.776Z,1.5
2023-01-28T05:27:36.433Z,1.5
2023-01-28T05:28:39.466Z,1.5
2023-01-28T05:29:42.278Z,1.5
2023-01-28T05:30:44.658Z,1.5
2023-01-28T05:31:48.186Z,1.5
2023-01-28T05:32:52.043Z,1.5
2023-01-28T05:33:55.114Z,1.5
2023-01-28T05:34:59.297Z,1.5
2023-01-28T05:36:02.755Z,1.4
2023-01-28T05:37:06.120Z,1.4
2023-01-28T05:38:09.555Z,1.4
2023-01-28T05:39:13.425Z,1.4
2023-01-28T05:40:18.178Z,1.4
2023-01-28T05:41:22.060Z,1.4
2023-01-28T05:42:26.183Z,1.4
2023-01-28T05:43:29.576Z,1.3
2023-01-28T05:44:32.292Z,1.3
2023-01-28T05:45:35.970Z,1.3
2023-01-28T05:46:40.053Z,1.3
2023-01-28T05:47:46.859Z,1.3
2023-01-28T05:48:50.233Z,1.3
2023-01-28T05:49:53.756Z,1.3
2023-01-28T05:50:56.867Z,1.2
2023-01-28T05:51:59.692Z,1.2
2023-01-28T05:53:02.764Z,1.2
2023-01-28T05:54:06.046Z,1.2
2023-01-28T05:55:08.696Z,1.2
2023-01-28T05:56:11.828Z,1.2
2023-01-28T05:57:15.128Z,1.2
2023-01-28T05:58:19.205Z,1.1
2023-01-28T05:59:23.247Z,1.1
2023-01-28T06:00:26.148Z,1.1
2023-01-28T06:01:28.935Z,1.1
2023-01-28T06:02:32.400Z,1.1
2023-01-28T06:03:35.823Z,1.1
2023-01-28T06:04:38.932Z,1
2023-01-28T06:05:41.736Z,1.1
2023-01-28T06:06:44.546Z,1.1
2023-01-28T06:07:47.638Z,1
2023-01-28T06:08:51.151Z,1
2023-01-28T06:09:54.489Z,1
2023-01-28T06:10:57.506Z,1
2023-01-28T06:12:00.247Z,1
2023-01-28T06:13:03.293Z,1
2023-01-28T06:14:06.311Z,1
2023-01-28T06:15:09.470Z,1
2023-01-28T06:16:13.204Z,1
2023-01-28T06:17:16.596Z,0.9
2023-01-28T06:18:19.393Z,0.9
2023-01-28T06:19:22.076Z,0.9
2023-01-28T06:20:25.149Z,0.9
2023-01-28T06:21:31.849Z,0.8
2023-01-28T06:22:35.257Z,0.8
2023-01-28T06:23:38.875Z,0.8
2023-01-28T06:24:41.626Z,0.8
2023-01-28T06:25:45.045Z,0.7
2023-01-28T06:26:48.526Z,0.7
2023-01-28T06:27:51.668Z,0.7
2023-01-28T06:28:55.079Z,0.7
2023-01-28T06:29:58.002Z,0.6
2023-01-28T06:31:01.694Z,0.6
2023-01-28T06:32:04.297Z,0.6
2023-01-28T06:33:07.092Z,0.6
2023-01-28T06:34:10.236Z,0.6
2023-01-28T06:35:13.305Z,0.5
2023-01-28T06:36:16.387Z,0.5
2023-01-28T06:37:19.814Z,0.5
2023-01-28T06:38:23.509Z,0.4
2023-01-28T06:39:27.233Z,0.4
2023-01-28T06:40:30.289Z,0.4
2023-01-28T06:41:33.979Z,0.4
2023-01-28T06:42:36.872Z,0.4
2023-01-28T06:43:40.081Z,0.4
2023-01-28T06:44:43.068Z,0.4
2023-01-28T06:45:46.495Z,0.3
2023-01-28T06:46:50.151Z,0.4
2023-01-28T06:47:53.273Z,0.4
2023-01-28T06:48:57.003Z,0.3
2023-01-28T06:49:59.996Z,0.3
2023-01-28T06:51:03.050Z,0.3
2023-01-28T06:52:06.129Z,0.3
2023-01-28T06:53:09.637Z,0.3
2023-01-28T06:54:12.814Z,0.3
2023-01-28T06:55:16.282Z,0.3
2023-01-28T06:56:19.297Z,0.2
2023-01-28T06:57:22.751Z,0.2
2023-01-28T06:58:25.587Z,0.2
2023-01-28T06:59:28.327Z,0.2
2023-01-28T07:00:31.475Z,0.2
2023-01-28T07:01:34.518Z,0.2
2023-01-28T07:02:37.662Z,0.2
2023-01-28T07:03:41.187Z,0.2
2023-01-28T07:04:44.221Z,0.2
2023-01-28T07:05:47.596Z,0.2
2023-01-28T07:06:51.354Z,0.2
2023-01-28T07:07:54.451Z,0.1
2023-01-28T07:08:57.428Z,0.1
2023-01-28T07:10:01.119Z,0.1
2023-01-28T07:11:04.312Z,0.1
2023-01-28T07:12:07.784Z,0.1
2023-01-28T07:13:10.496Z,0.1
2023-01-28T07:14:13.396Z,0
2023-01-28T07:15:17.301Z,0
2023-01-28T07:16:20.693Z,0.1
2023-01-28T07:17:23.802Z,0.1
2023-01-28T07:18:27.305Z,0.1
2023-01-28T07:19:31.036Z,0.1
2023-01-28T07:20:33.920Z,0.1
2023-01-28T07:21:37.037Z,0
2023-01-28T07:22:40.753Z,0
2023-01-28T07:23:44.136Z,0
2023-01-28T07:24:46.770Z,0
2023-01-28T07:25:50.430Z,0
2023-01-28T07:26:54.165Z,0
2023-01-28T07:27:57.652Z,0
2023-01-28T07:29:01.017Z,0
2023-01-28T07:30:03.915Z,0
2023-01-28T07:31:07.360Z,0
2023-01-28T07:32:10.567Z,0
2023-01-28T07:33:14.061Z,0
2023-01-28T07:34:17.858Z,0
2023-01-28T07:35:20.859Z,-0.1
2023-01-28T07:36:23.683Z,0
2023-01-28T07:37:27.141Z,0
2023-01-28T07:38:30.146Z,0
2023-01-28T07:39:33.310Z,0
2023-01-28T07:40:36.123Z,0
2023-01-28T07:41:39.875Z,0
2023-01-28T07:42:43.880Z,0
2023-01-28T07:43:47.254Z,0
2023-01-28T07:44:50.615Z,0
2023-01-28T07:45:53.434Z,0
2023-01-28T07:46:56.869Z,0
2023-01-28T07:47:59.941Z,0
2023-01-28T07:49:03.077Z,0.1
2023-01-28T07:50:06.769Z,0.1
2023-01-28T07:51:09.890Z,0.1
2023-01-28T07:52:13.023Z,0.1
2023-01-28T07:53:16.458Z,0.1
2023-01-28T07:54:20.112Z,0.1
2023-01-28T07:55:23.526Z,0.1
2023-01-28T07:56:27.013Z,0.1
2023-01-28T07:57:30.751Z,0.1
2023-01-28T07:58:34.523Z,0.1
2023-01-28T07:59:37.680Z,0.1
2023-01-28T08:00:40.790Z,0.1
2023-01-28T08:01:44.516Z,0.2
2023-01-28T08:02:48.608Z,0.2
2023-01-28T08:03:51.885Z,0.2
2023-01-28T08:04:56.194Z,0.2
2023-01-28T08:05:59.646Z,0.2
2023-01-28T08:07:02.935Z,0.3
2023-01-28T08:08:05.642Z,0.3
2023-01-28T08:09:09.101Z,0.3
2023-01-28T08:10:13.201Z,0.3
2023-01-28T08:11:17.361Z,0.3
2023-01-28T08:12:20.468Z,0.4
2023-01-28T08:13:23.568Z,0.4
2023-01-28T08:14:26.560Z,0.5
2023-01-28T08:15:30.241Z,0.5
2023-01-28T08:16:35.209Z,0.5
2023-01-28T08:17:38.296Z,0.6
2023-01-28T08:18:41.629Z,0.6
2023-01-28T08:19:45.365Z,0.6
2023-01-28T08:20:48.556Z,0.7
2023-01-28T08:21:52.178Z,0.7
2023-01-28T08:22:55.551Z,0.7
2023-01-28T08:23:58.955Z,0.8
2023-01-28T08:25:02.268Z,0.8
2023-01-28T08:26:05.357Z,0.8
2023-01-28T08:27:08.821Z,0.8
2023-01-28T08:28:12.109Z,0.8
2023-01-28T08:29:15.216Z,0.8
2023-01-28T08:30:19.410Z,0.8
2023-01-28T08:31:23.437Z,0.8
2023-01-28T08:32:26.542Z,0.8
2023-01-28T08:33:29.904Z,0.8
2023-01-28T08:34:33.159Z,0.9
2023-01-28T08:35:36.995Z,0.9
2023-01-28T08:36:40.009Z,0.9
2023-01-28T08:37:42.866Z,0.8
2023-01-28T08:38:46.189Z,0.8
2023-01-28T08:39:49.289Z,0.8
2023-01-28T08:40:52.941Z,0.9
2023-01-28T08:41:55.401Z,0.9
2023-01-28T08:42:58.509Z,0.9
2023-01-28T08:44:01.867Z,0.9
2023-01-28T08:45:05.395Z,0.9
2023-01-28T08:46:08.693Z,1
2023-01-28T08:47:11.535Z,1
2023-01-28T08:48:15.137Z,1
2023-01-28T08:49:18.613Z,1
2023-01-28T08:50:22.293Z,1
2023-01-28T08:51:25.960Z,1.1
2023-01-28T08:52:29.055Z,1.1
2023-01-28T08:53:32.539Z,1.1
2023-01-28T08:54:35.907Z,1
2023-01-28T08:55:39.663Z,1
2023-01-28T08:56:42.649Z,1
2023-01-28T08:57:46.011Z,1
2023-01-28T08:58:49.051Z,1
2023-01-28T08:59:53.126Z,1
2023-01-28T09:00:56.253Z,1
2023-01-28T09:01:59.468Z,1
2023-01-28T09:03:07.287Z,1
2023-01-28T09:04:10.089Z,1.1
2023-01-28T09:05:13.597Z,1.1
2023-01-28T09:06:16.726Z,1.1
2023-01-28T09:07:20.097Z,1.1
2023-01-28T09:08:26.584Z,1.1
2023-01-28T09:09:30.022Z,1.2
2023-01-28T09:10:32.948Z,1.2
2023-01-28T09:11:35.792Z,1.2
2023-01-28T09:12:38.525Z,1.2
2023-01-28T09:13:41.310Z,1.2
2023-01-28T09:14:44.763Z,1.2
2023-01-28T09:15:48.337Z,1.3
2023-01-28T09:16:51.771Z,1.3
2023-01-28T09:17:54.838Z,1.4
2023-01-28T09:18:57.846Z,1.4
2023-01-28T09:20:01.125Z,1.4
2023-01-28T09:21:04.560Z,1.4
2023-01-28T09:22:07.930Z,1.5
2023-01-28T09:23:11.241Z,1.5
2023-01-28T09:24:14.507Z,1.5
2023-01-28T09:25:18.337Z,1.5
2023-01-28T09:26:21.128Z,1.5
2023-01-28T09:27:24.833Z,1.5
2023-01-28T09:28:29.071Z,1.5
2023-01-28T09:29:31.620Z,1.5
2023-01-28T09:30:39.614Z,1.5
2023-01-28T09:31:43.387Z,1.5
2023-01-28T09:32:46.832Z,1.4
2023-01-28T09:33:50.104Z,1.5
2023-01-28T09:34:53.509Z,1.4
2023-01-28T09:35:56.896Z,1.5
2023-01-28T09:37:00.297Z,1.5
2023-01-28T09:38:03.995Z,1.5
2023-01-28T09:39:07.356Z,1.5
2023-01-28T09:40:10.664Z,1.5
2023-01-28T09:41:13.836Z,1.5
2023-01-28T09:42:16.840Z,1.5
2023-01-28T09:43:19.954Z,1.4
2023-01-28T09:44:22.463Z,1.4
2023-01-28T09:45:25.249Z,1.4
2023-01-28T09:46:28.338Z,1.4
2023-01-28T09:47:31.875Z,1.5
2023-01-28T09:48:34.689Z,1.5
2023-01-28T09:49:37.686Z,1.5
2023-01-28T09:50:41.153Z,1.5
2023-01-28T09:51:44.457Z,1.6
2023-01-28T09:52:47.469Z,1.6
2023-01-28T09:53:52.016Z,1.7
2023-01-28T09:54:55.071Z,1.7
2023-01-28T09:55:58.233Z,1.7
2023-01-28T09:57:01.973Z,1.7
2023-01-28T09:58:04.777Z,1.7
2023-01-28T09:59:07.501Z,1.7
2023-01-28T10:00:10.131Z,1.7
2023-01-28T10:01:13.290Z,1.7
2023-01-28T10:02:15.854Z,1.7
2023-01-28T10:03:19.295Z,1.7
2023-01-28T10:04:22.473Z,1.8
2023-01-28T10:05:26.230Z,1.8
2023-01-28T10:06:29.146Z,1.9
2023-01-28T10:07:31.954Z,1.9
2023-01-28T10:08:35.443Z,1.9
2023-01-28T10:09:38.460Z,1.9
2023-01-28T10:10:41.441Z,1.9
2023-01-28T10:11:44.830Z,1.9
2023-01-28T10:12:47.980Z,1.9
2023-01-28T10:13:51.759Z,2.1
2023-01-28T10:14:54.877Z,2.2
2023-01-28T10:15:58.022Z,2.2
2023-01-28T10:17:00.492Z,2.2
2023-01-28T10:18:19.685Z,2.1
2023-01-28T10:19:23.112Z,2
2023-01-28T10:20:26.493Z,2
2023-01-28T10:21:30.173Z,2
2023-01-28T10:22:33.298Z,2
2023-01-28T10:23:36.680Z,2
2023-01-28T10:24:40.425Z,2
2023-01-28T10:25:43.169Z,2.1
2023-01-28T10:26:46.541Z,2.1
2023-01-28T10:27:49.815Z,2.1
2023-01-28T10:28:53.511Z,2.1
2023-01-28T10:29:56.311Z,2.1
2023-01-28T10:30:59.532Z,2
2023-01-28T10:32:02.608Z,2
2023-01-28T10:33:06.044Z,2
2023-01-28T10:34:09.067Z,2
2023-01-28T10:35:12.238Z,2
2023-01-28T10:36:15.724Z,1.9
2023-01-28T10:37:18.520Z,1.9
2023-01-28T10:38:22.046Z,2
2023-01-28T10:39:25.692Z,2
2023-01-28T10:40:29.228Z,2
2023-01-28T10:41:32.038Z,2
2023-01-28T10:42:34.768Z,2
2023-01-28T10:43:38.519Z,2
2023-01-28T10:44:42.235Z,2
2023-01-28T10:45:45.615Z,2.1
2023-01-28T10:46:49.480Z,2.1
2023-01-28T10:47:52.846Z,2.1
2023-01-28T10:48:56.262Z,2.1
2023-01-28T10:49:58.977Z,2.1
2023-01-28T10:51:02.451Z,2.1
2023-01-28T10:52:05.846Z,2.1
2023-01-28T10:53:08.949Z,2.1
2023-01-28T10:54:12.641Z,2.1
2023-01-28T10:55:15.624Z,2.2
2023-01-28T10:56:18.933Z,2.1
2023-01-28T10:57:22.476Z,2.1
2023-01-28T10:58:25.946Z,2.2
2023-01-28T10:59:29.238Z,2.2
2023-01-28T11:00:32.899Z,2.2
2023-01-28T11:01:35.680Z,2.1
2023-01-28T11:02:39.712Z,2.1
2023-01-28T11:03:42.789Z,2.1
2023-01-28T11:04:45.874Z,2.1
2023-01-28T11:05:48.892Z,2.1
2023-01-28T11:06:51.952Z,2.1
2023-01-28T11:07:55.099Z,2.1
2023-01-28T11:09:01.466Z,2.2
2023-01-28T11:10:04.661Z,2.2
2023-01-28T11:11:08.390Z,2.2
2023-01-28T11:12:11.202Z,2.3
2023-01-28T11:13:14.599Z,2.2
2023-01-28T11:14:17.668Z,2.3
2023-01-28T11:15:20.605Z,2.4
2023-01-28T11:16:23.781Z,2.4
2023-01-28T11:17:27.605Z,2.3
2023-01-28T11:18:31.189Z,2.5
2023-01-28T11:19:34.228Z,2.4
2023-01-28T11:20:37.620Z,2.4
2023-01-28T11:21:40.718Z,2.4
2023-01-28T11:22:44.075Z,2.5
2023-01-28T11:23:47.458Z,2.6
2023-01-28T11:24:50.846Z,2.6
2023-01-28T11:25:54.510Z,2.5
2023-01-28T11:26:57.620Z,2.6
2023-01-28T11:28:00.932Z,2.6
2023-01-28T11:29:03.541Z,2.6
2023-01-28T11:30:06.775Z,2.7
2023-01-28T11:31:10.726Z,2.6
2023-01-28T11:32:14.190Z,2.7
2023-01-28T11:33:17.968Z,2.8
2023-01-28T11:34:21.730Z,2.8
2023-01-28T11:35:24.856Z,2.8
2023-01-28T11:36:27.713Z,2.9
2023-01-28T11:37:31.281Z,2.9
2023-01-28T11:38:34.298Z,3
2023-01-28T11:39:37.997Z,3.1
2023-01-28T11:40:40.731Z,3.1
2023-01-28T11:41:44.028Z,3.3
2023-01-28T11:42:47.828Z,3.5
2023-01-28T11:43:50.365Z,3.7
2023-01-28T11:44:53.981Z,3.9
2023-01-28T11:45:57.576Z,3.9
2023-01-28T11:47:01.094Z,4
2023-01-28T11:48:05.221Z,3.9
2023-01-28T11:49:08.541Z,3.7
2023-01-28T11:50:11.352Z,3.7
2023-01-28T11:51:14.464Z,3.6
2023-01-28T11:52:17.539Z,3.5
2023-01-28T11:53:21.301Z,3.5
2023-01-28T11:54:23.881Z,3.6
2023-01-28T11:55:28.072Z,3.8
2023-01-28T11:56:31.037Z,3.9
2023-01-28T11:57:34.432Z,3.9
2023-01-28T11:58:38.084Z,3.9
2023-01-28T11:59:40.546Z,3.8
2023-01-28T12:00:43.950Z,3.8
2023-01-28T12:01:47.676Z,3.8
2023-01-28T12:02:51.845Z,3.8
2023-01-28T12:03:55.470Z,3.9
2023-01-28T12:04:58.992Z,3.9
2023-01-28T12:06:02.343Z,4
2023-01-28T12:07:05.244Z,4.1
2023-01-28T12:08:07.989Z,4.3
2023-01-28T12:09:11.331Z,4.5
2023-01-28T12:10:17.052Z,4.5
2023-01-28T12:11:20.848Z,4.5
2023-01-28T12:12:23.555Z,4.5
2023-01-28T12:13:26.685Z,4.3
2023-01-28T12:14:30.052Z,4.3
2023-01-28T12:15:32.948Z,4
2023-01-28T12:16:36.444Z,3.9
2023-01-28T12:17:39.223Z,3.9
2023-01-28T12:18:42.592Z,3.9
2023-01-28T12:19:46.270Z,3.9
2023-01-28T12:20:49.806Z,4
2023-01-28T12:21:52.695Z,4
2023-01-28T12:22:58.765Z,4
2023-01-28T12:24:02.449Z,4.1
2023-01-28T12:25:06.262Z,4.3
2023-01-28T12:26:09.103Z,4.5
2023-01-28T12:27:12.861Z,4.5
2023-01-28T12:28:16.152Z,4.5
2023-01-28T12:29:19.623Z,4.6
2023-01-28T12:30:23.412Z,4.7
2023-01-28T12:31:27.246Z,4.7
2023-01-28T12:32:30.542Z,4.8
2023-01-28T12:33:33.881Z,4.9
2023-01-28T12:34:37.357Z,5.1
2023-01-28T12:35:41.364Z,5.2
2023-01-28T12:36:44.147Z,5.1
2023-01-28T12:37:47.470Z,5
2023-01-28T12:38:51.137Z,5.2
2023-01-28T12:39:54.182Z,5.3
2023-01-28T12:40:57.539Z,5.3
2023-01-28T12:42:00.251Z,5.5
2023-01-28T12:43:03.333Z,5.7
2023-01-28T12:44:06.046Z,5.9
2023-01-28T12:45:08.855Z,6.1
2023-01-28T12:46:11.316Z,6.2
2023-01-28T12:47:14.434Z,5.8
2023-01-28T12:48:17.543Z,5.6
2023-01-28T12:49:20.914Z,5.5
2023-01-28T12:50:24.082Z,5.5
2023-01-28T12:51:27.465Z,5.5
2023-01-28T12:52:30.638Z,5.6
2023-01-28T12:53:33.088Z,5.8
2023-01-28T12:54:36.368Z,6
2023-01-28T12:55:39.189Z,6.2
2023-01-28T12:56:42.701Z,6.3
2023-01-28T12:57:45.709Z,6.4
2023-01-28T12:58:48.895Z,6.6
2023-01-28T12:59:51.871Z,6.7
2023-01-28T13:00:54.961Z,6.8
2023-01-28T13:01:58.903Z,6.8
2023-01-28T13:03:02.205Z,6.8
2023-01-28T13:04:04.801Z,6.9
2023-01-28T13:05:08.514Z,7
2023-01-28T13:06:12.616Z,7
2023-01-28T13:07:15.171Z,7
2023-01-28T13:08:17.928Z,7.1
2023-01-28T13:09:21.004Z,6.8
2023-01-28T13:10:24.252Z,6.8
2023-01-28T13:11:28.046Z,6.7
2023-01-28T13:12:31.543Z,6.5
2023-01-28T13:13:34.672Z,6.6
2023-01-28T13:14:38.403Z,6.7
2023-01-28T13:15:41.207Z,6.8
2023-01-28T13:16:45.631Z,6.8
2023-01-28T13:17:49.163Z,6.7
2023-01-28T13:18:52.905Z,6.8
2023-01-28T13:19:55.729Z,6.6
2023-01-28T13:20:59.508Z,6.6
2023-01-28T13:22:02.527Z,6.6
2023-01-28T13:23:05.458Z,6.6
2023-01-28T13:24:09.224Z,6.4
2023-01-28T13:25:13.995Z,6.5
2023-01-28T13:26:18.192Z,6.5
2023-01-28T13:27:22.014Z,6.5
2023-01-28T13:28:25.042Z,6.6
2023-01-28T13:29:28.098Z,6.8
2023-01-28T13:30:32.016Z,6.9
2023-01-28T13:31:35.539Z,6.6
2023-01-28T13:32:39.168Z,6.5
2023-01-28T13:33:42.967Z,6.5
2023-01-28T13:34:47.113Z,6.2
2023-01-28T13:35:50.782Z,5.8
2023-01-28T13:36:54.226Z,5.7
2023-01-28T13:37:58.399Z,5.8
2023-01-28T13:39:02.416Z,5.6
2023-01-28T13:40:05.613Z,5.6
2023-01-28T13:41:08.613Z,5.5
2023-01-28T13:42:11.422Z,5.4
2023-01-28T13:43:14.703Z,5.1
2023-01-28T13:44:17.832Z,4.8
2023-01-28T13:45:21.687Z,4.9
2023-01-28T13:46:25.350Z,4.8
2023-01-28T13:47:29.047Z,4.7
2023-01-28T13:48:32.504Z,4.5
2023-01-28T13:49:36.199Z,4.6
2023-01-28T13:50:39.958Z,4.5
2023-01-28T13:51:43.682Z,4.4
2023-01-28T13:52:46.458Z,4.4
2023-01-28T13:53:49.747Z,4.3
2023-01-28T13:54:53.483Z,4.1
2023-01-28T13:55:56.064Z,4
2023-01-28T13:56:59.052Z,3.9
2023-01-28T13:58:01.838Z,3.8
2023-01-28T13:59:05.596Z,3.6
2023-01-28T14:00:08.775Z,3.7
2023-01-28T14:01:12.116Z,3.8
2023-01-28T14:02:15.654Z,3.7
2023-01-28T14:03:19.018Z,3.8
2023-01-28T14:04:22.561Z,3.7
2023-01-28T14:05:26.001Z,3.7
2023-01-28T14:06:29.120Z,3.5
2023-01-28T14:07:32.521Z,3.5
2023-01-28T14:08:35.534Z,3.3
2023-01-28T14:09:38.939Z,3.2
2023-01-28T14:10:42.685Z,3
2023-01-28T14:11:45.516Z,3
2023-01-28T14:12:48.852Z,3
2023-01-28T14:13:52.261Z,3.1
2023-01-28T14:14:55.653Z,3.1
2023-01-28T14:15:59.565Z,3.1
2023-01-28T14:17:03.607Z,3.1
2023-01-28T14:18:07.559Z,3
2023-01-28T14:19:10.929Z,3
2023-01-28T14:20:15.794Z,3
2023-01-28T14:21:19.436Z,2.9
2023-01-28T14:22:22.787Z,2.9
2023-01-28T14:23:26.092Z,2.7
2023-01-28T14:24:29.581Z,2.7
2023-01-28T14:25:33.035Z,2.7
2023-01-28T14:26:36.167Z,2.8
2023-01-28T14:27:39.613Z,2.8
2023-01-28T14:28:41.970Z,2.9
2023-01-28T14:29:45.694Z,2.9
2023-01-28T14:30:49.819Z,2.9
2023-01-28T14:31:54.908Z,2.9
2023-01-28T14:32:58.052Z,2.8
2023-01-28T14:34:01.504Z,2.7
2023-01-28T14:35:04.929Z,2.7
2023-01-28T14:36:08.700Z,2.6
2023-01-28T14:37:12.000Z,2.6
2023-01-28T14:38:15.101Z,2.6
2023-01-28T14:39:18.844Z,2.5
2023-01-28T14:40:21.533Z,2.5
2023-01-28T14:41:25.149Z,2.5